Terminal Aerodrome Forecast
Issued by NWS

Home | Current Version | Previous Version | Text Only | Print | Product List | Glossary On
Versions: 1 2 3 4 5 6 7 8 9 10 11 12 13 14 15 16 17 18 19 20 21 22 23 24 25 26
000
FTUS45 KTWC 250500
TAFOLS
TAF
KOLS 250520Z 2506/2606 VRB04KT P6SM FEW100 SCT250
     FM251800 17005KT P6SM FEW070 SCT250
     FM252000 21009KT P6SM VCSH SCT080 BKN150
     FM260400 17005KT P6SM SCT070 BKN180=

USA.gov is the U.S. government's official web portal to all federal, state and local government web resources and services.